Time,TemperatureF,DewpointF,PressureIn,WindDirection,WindDirectionDegrees,WindSpeedMPH,WindSpeedGustMPH,Humidity,HourlyPrecipIn,Conditions,Clouds,dailyrainin,SoftwareType,DateUTC
2013-02-20 00:00:00,36.7,28.9,29.78,NW,319,1.0,1.0,73,0.00,,CLR,0.00,VWS V14.01,2013-02-20 05:00:00,
2013-02-20 00:05:00,36.6,28.8,29.78,NNW,335,3.0,10.0,73,0.00,,FEW050,0.00,VWS V14.01,2013-02-20 05:05:00,
2013-02-20 00:10:00,36.4,28.6,29.78,NNW,336,0.0,10.0,73,0.00,,FEW050,0.00,VWS V14.01,2013-02-20 05:10:00,
2013-02-20 00:15:00,36.2,28.7,29.78,WNW,288,1.0,10.0,74,0.00,,FEW050,0.00,VWS V14.01,2013-02-20 05:15:00,
2013-02-20 00:20:00,35.9,28.8,29.78,NW,316,3.0,10.0,75,0.00,,FEW050,0.00,VWS V14.01,2013-02-20 05:20:00,
2013-02-20 00:25:00,35.6,28.5,29.78,WNW,294,3.0,10.0,75,0.00,,FEW050,0.00,VWS V14.01,2013-02-20 05:25:00,
2013-02-20 00:30:00,35.5,28.0,29.78,NW,304,9.0,10.0,74,0.00,,FEW050,0.00,VWS V14.01,2013-02-20 05:30:00,
2013-02-20 00:35:00,35.7,26.9,29.78,SSW,213,3.0,14.0,70,0.00,,FEW050,0.00,VWS V14.01,2013-02-20 05:35:00,
2013-02-20 00:40:00,35.8,26.3,29.78,WNW,287,5.0,14.0,68,0.00,,FEW050,0.00,VWS V14.01,2013-02-20 05:40:00,
2013-02-20 00:45:00,35.8,25.6,29.78,West,267,7.0,14.0,66,0.00,,FEW050,0.00,VWS V14.01,2013-02-20 05:45:00,
2013-02-20 00:50:00,35.8,25.6,29.78,WNW,300,4.0,14.0,66,0.00,,FEW050,0.00,VWS V14.01,2013-02-20 05:50:00,
2013-02-20 00:55:00,35.7,24.7,29.78,WSW,252,8.0,14.0,64,0.00,,FEW050,0.00,VWS V14.01,2013-02-20 05:55:00,
2013-02-20 01:00:00,35.7,23.2,29.78,WNW,294,6.0,14.0,60,0.00,,BKN055,0.00,VWS V14.01,2013-02-20 06:00:00,
2013-02-20 01:05:00,35.7,22.0,29.78,West,261,4.0,20.0,57,0.00,,BKN055,0.00,VWS V14.01,2013-02-20 06:05:00,
2013-02-20 01:10:00,35.7,22.0,29.79,WNW,288,5.0,20.0,57,0.00,,BKN055,0.00,VWS V14.01,2013-02-20 06:10:00,
2013-02-20 01:15:00,35.5,22.2,29.79,West,278,5.0,20.0,58,0.00,,BKN055,0.00,VWS V14.01,2013-02-20 06:15:00,
2013-02-20 01:21:00,35.2,21.9,29.79,NNE,22,4.0,20.0,58,0.00,,BKN055,0.00,VWS V14.01,2013-02-20 06:21:00,
2013-02-20 01:26:00,35.1,21.8,29.79,West,271,4.0,20.0,58,0.00,,BKN055,0.00,VWS V14.01,2013-02-20 06:26:00,
2013-02-20 01:31:00,35.0,21.3,29.79,WNW,283,11.0,14.0,57,0.00,,BKN055,0.00,VWS V14.01,2013-02-20 06:31:00,
2013-02-20 01:36:00,34.9,21.2,29.79,West,259,5.0,17.0,57,0.00,,BKN055,0.00,VWS V14.01,2013-02-20 06:36:00,
2013-02-20 01:41:00,34.8,21.5,29.79,WNW,290,5.0,17.0,58,0.00,,BKN055,0.00,VWS V14.01,2013-02-20 06:41:00,
2013-02-20 01:46:00,34.5,21.3,29.80,West,259,8.0,17.0,58,0.00,,BKN055,0.00,VWS V14.01,2013-02-20 06:46:00,
2013-02-20 01:51:00,34.4,20.8,29.80,WNW,285,13.0,21.0,57,0.00,,BKN055,0.00,VWS V14.01,2013-02-20 06:51:00,
2013-02-20 01:56:00,34.3,21.1,29.80,West,264,6.0,21.0,58,0.00,,BKN055,0.00,VWS V14.01,2013-02-20 06:56:00,
2013-02-20 02:01:00,34.1,20.5,29.80,WNW,288,3.0,12.0,57,0.00,,FEW055,0.00,VWS V14.01,2013-02-20 07:01:00,
2013-02-20 02:06:00,34.0,20.4,29.81,WSW,251,13.0,21.0,57,0.00,,FEW055,0.00,VWS V14.01,2013-02-20 07:06:00,
2013-02-20 02:11:00,33.8,19.8,29.81,West,277,4.0,22.0,56,0.00,,FEW055,0.00,VWS V14.01,2013-02-20 07:11:00,
2013-02-20 02:16:00,33.6,20.0,29.82,WNW,284,12.0,22.0,57,0.00,,FEW055,0.00,VWS V14.01,2013-02-20 07:16:00,
2013-02-20 02:21:00,33.5,19.9,29.81,NNW,337,7.0,22.0,57,0.00,,FEW055,0.00,VWS V14.01,2013-02-20 07:21:00,
2013-02-20 02:26:00,33.4,19.8,29.82,WNW,294,7.0,22.0,57,0.00,,FEW055,0.00,VWS V14.01,2013-02-20 07:26:00,
2013-02-20 02:31:00,33.2,20.0,29.81,West,263,5.0,9.0,58,0.00,,FEW055,0.00,VWS V14.01,2013-02-20 07:31:00,
2013-02-20 02:36:00,33.0,19.9,29.81,NW,304,6.0,11.0,58,0.00,,FEW055,0.00,VWS V14.01,2013-02-20 07:36:00,
2013-02-20 02:41:00,32.9,19.8,29.81,NNW,346,5.0,12.0,58,0.00,,FEW055,0.00,VWS V14.01,2013-02-20 07:41:00,
2013-02-20 02:46:00,32.7,20.0,29.81,NNW,329,10.0,12.0,59,0.00,,FEW055,0.00,VWS V14.01,2013-02-20 07:46:00,
2013-02-20 02:51:00,32.6,19.9,29.81,NW,324,10.0,14.0,59,0.00,,FEW055,0.00,VWS V14.01,2013-02-20 07:51:00,
2013-02-20 02:56:00,32.5,19.8,29.81,WNW,300,7.0,14.0,59,0.00,,FEW055,0.00,VWS V14.01,2013-02-20 07:56:00,
2013-02-20 03:05:00,32.4,20.1,29.81,WNW,284,4.0,16.0,60,0.00,,CLR,0.00,VWS V14.01,2013-02-20 08:05:00,
2013-02-20 03:10:00,32.3,20.0,29.81,WSW,247,3.0,16.0,60,0.00,,CLR,0.00,VWS V14.01,2013-02-20 08:10:00,
2013-02-20 03:15:00,32.1,19.8,29.81,WSW,243,3.0,16.0,60,0.00,,CLR,0.00,VWS V14.01,2013-02-20 08:15:00,
2013-02-20 03:20:00,32.0,19.7,29.81,West,273,6.0,16.0,60,0.00,,CLR,0.00,VWS V14.01,2013-02-20 08:20:00,
2013-02-20 03:25:00,32.0,19.7,29.81,WNW,302,5.0,16.0,60,0.00,,CLR,0.00,VWS V14.01,2013-02-20 08:25:00,
2013-02-20 03:30:00,31.9,19.6,29.81,WSW,250,3.0,5.0,60,0.00,,CLR,0.00,VWS V14.01,2013-02-20 08:30:00,
2013-02-20 03:35:00,31.9,19.6,29.81,WNW,303,6.0,12.0,60,0.00,,CLR,0.00,VWS V14.01,2013-02-20 08:35:00,
2013-02-20 03:40:00,31.7,19.4,29.82,WNW,294,3.0,12.0,60,0.00,,CLR,0.00,VWS V14.01,2013-02-20 08:40:00,
2013-02-20 03:45:00,31.6,19.3,29.82,West,277,6.0,12.0,60,0.00,,CLR,0.00,VWS V14.01,2013-02-20 08:45:00,
2013-02-20 03:50:00,31.5,19.6,29.82,WNW,287,9.0,12.0,61,0.00,,CLR,0.00,VWS V14.01,2013-02-20 08:50:00,
2013-02-20 03:55:00,31.5,19.6,29.82,WNW,293,7.0,12.0,61,0.00,,CLR,0.00,VWS V14.01,2013-02-20 08:55:00,
2013-02-20 04:00:00,31.5,19.6,29.82,WNW,285,8.0,8.0,61,0.00,,CLR,0.00,VWS V14.01,2013-02-20 09:00:00,
2013-02-20 04:05:00,31.4,19.5,29.82,NW,319,6.0,14.0,61,0.00,,CLR,0.00,VWS V14.01,2013-02-20 09:05:00,
2013-02-20 04:10:00,31.4,19.9,29.82,WNW,286,4.0,14.0,62,0.00,,CLR,0.00,VWS V14.01,2013-02-20 09:10:00,
2013-02-20 04:15:00,31.4,19.9,29.82,WNW,294,3.0,14.0,62,0.00,,CLR,0.00,VWS V14.01,2013-02-20 09:15:00,
2013-02-20 04:20:00,31.5,20.0,29.82,NW,323,3.0,14.0,62,0.00,,CLR,0.00,VWS V14.01,2013-02-20 09:20:00,
2013-02-20 04:25:00,31.5,20.0,29.83,West,264,3.0,14.0,62,0.00,,CLR,0.00,VWS V14.01,2013-02-20 09:25:00,
2013-02-20 04:30:00,31.5,20.4,29.83,WSW,255,2.0,5.0,63,0.00,,CLR,0.00,VWS V14.01,2013-02-20 09:30:00,
2013-02-20 04:35:00,31.5,20.4,29.83,WNW,294,1.0,6.0,63,0.00,,CLR,0.00,VWS V14.01,2013-02-20 09:35:00,
2013-02-20 04:40:00,31.6,20.5,29.83,West,268,5.0,10.0,63,0.00,,CLR,0.00,VWS V14.01,2013-02-20 09:40:00,
2013-02-20 04:45:00,31.7,20.6,29.83,West,275,2.0,10.0,63,0.00,,CLR,0.00,VWS V14.01,2013-02-20 09:45:00,
2013-02-20 04:50:00,31.8,21.0,29.83,NW,308,7.0,10.0,64,0.00,,CLR,0.00,VWS V14.01,2013-02-20 09:50:00,
2013-02-20 04:55:00,31.8,21.0,29.83,WNW,300,10.0,10.0,64,0.00,,CLR,0.00,VWS V14.01,2013-02-20 09:55:00,
2013-02-20 05:00:00,31.9,21.1,29.84,West,265,4.0,11.0,64,0.00,,BKN050,0.00,VWS V14.01,2013-02-20 10:00:00,
2013-02-20 05:05:00,31.9,21.1,29.84,West,277,8.0,15.0,64,0.00,,BKN050,0.00,VWS V14.01,2013-02-20 10:05:00,
2013-02-20 05:10:00,31.6,20.8,29.84,NW,312,4.0,15.0,64,0.00,,BKN050,0.00,VWS V14.01,2013-02-20 10:10:00,
2013-02-20 05:16:00,31.4,20.3,29.85,WNW,294,6.0,17.0,63,0.00,,BKN050,0.00,VWS V14.01,2013-02-20 10:16:00,
2013-02-20 05:21:00,31.1,18.9,29.85,WNW,297,10.0,18.0,60,0.00,,BKN050,0.00,VWS V14.01,2013-02-20 10:21:00,
2013-02-20 05:25:00,30.9,17.9,29.85,WNW,284,12.0,18.0,58,0.00,,BKN050,0.00,VWS V14.01,2013-02-20 10:25:00,
2013-02-20 05:31:00,30.8,17.0,29.84,NW,309,12.0,17.0,56,0.00,,BKN050,0.00,VWS V14.01,2013-02-20 10:31:00,
2013-02-20 05:36:00,30.7,17.3,29.85,West,267,6.0,17.0,57,0.00,,BKN050,0.00,VWS V14.01,2013-02-20 10:36:00,
2013-02-20 05:41:00,30.5,17.1,29.85,West,275,2.0,17.0,57,0.00,,BKN050,0.00,VWS V14.01,2013-02-20 10:41:00,
2013-02-20 05:46:00,30.5,17.1,29.85,WNW,290,8.0,17.0,57,0.00,,BKN050,0.00,VWS V14.01,2013-02-20 10:46:00,
2013-02-20 05:51:00,30.3,16.9,29.85,SW,227,3.0,17.0,57,0.00,,BKN050,0.00,VWS V14.01,2013-02-20 10:51:00,
2013-02-20 05:56:00,30.3,16.5,29.85,WNW,296,6.0,17.0,56,0.00,,BKN050,0.00,VWS V14.01,2013-02-20 10:56:00,
2013-02-20 06:01:00,30.2,16.8,29.86,North,355,7.0,7.0,57,0.00,,BKN055,0.00,VWS V14.01,2013-02-20 11:01:00,
2013-02-20 06:06:00,30.0,16.6,29.86,WNW,286,6.0,12.0,57,0.00,,BKN055,0.00,VWS V14.01,2013-02-20 11:06:00,
2013-02-20 06:11:00,29.9,15.7,29.85,NNW,344,12.0,15.0,55,0.00,,BKN055,0.00,VWS V14.01,2013-02-20 11:11:00,
2013-02-20 06:16:00,29.9,15.3,29.86,West,270,6.0,15.0,54,0.00,,BKN055,0.00,VWS V14.01,2013-02-20 11:16:00,
2013-02-20 06:21:00,29.8,15.6,29.86,NNW,331,8.0,15.0,55,0.00,,BKN055,0.00,VWS V14.01,2013-02-20 11:21:00,
2013-02-20 06:26:00,29.7,15.1,29.87,WNW,284,10.0,19.0,54,0.00,,BKN055,0.00,VWS V14.01,2013-02-20 11:26:00,
2013-02-20 06:31:00,29.6,14.6,29.87,West,259,7.0,16.0,53,0.00,,BKN055,0.00,VWS V14.01,2013-02-20 11:31:00,
2013-02-20 06:36:00,29.4,14.4,29.87,WNW,303,14.0,16.0,53,0.00,,BKN055,0.00,VWS V14.01,2013-02-20 11:36:00,
2013-02-20 06:41:00,29.4,14.8,29.88,NW,311,14.0,16.0,54,0.00,,BKN055,0.00,VWS V14.01,2013-02-20 11:41:00,
2013-02-20 06:46:00,29.3,14.7,29.88,WNW,284,14.0,17.0,54,0.00,,BKN055,0.00,VWS V14.01,2013-02-20 11:46:00,
2013-02-20 06:51:00,29.1,14.1,29.88,WNW,298,10.0,21.0,53,0.00,,BKN055,0.00,VWS V14.01,2013-02-20 11:51:00,
2013-02-20 06:56:00,29.0,14.0,29.89,North,355,15.0,21.0,53,0.00,,BKN055,0.00,VWS V14.01,2013-02-20 11:56:00,
2013-02-20 07:01:00,28.9,13.9,29.89,West,278,11.0,13.0,53,0.00,,OVC047,0.00,VWS V14.01,2013-02-20 12:01:00,
2013-02-20 07:06:00,28.9,14.4,29.89,WNW,292,10.0,13.0,54,0.00,,OVC047,0.00,VWS V14.01,2013-02-20 12:06:00,
2013-02-20 07:11:00,28.9,14.4,29.89,NW,323,15.0,15.0,54,0.00,,OVC047,0.00,VWS V14.01,2013-02-20 12:11:00,
2013-02-20 07:16:00,29.0,14.0,29.90,WNW,299,13.0,16.0,53,0.00,,OVC047,0.00,VWS V14.01,2013-02-20 12:16:00,
2013-02-20 07:21:00,29.2,14.2,29.90,NW,305,6.0,16.0,53,0.00,,OVC047,0.00,VWS V14.01,2013-02-20 12:21:00,
2013-02-20 07:26:00,29.3,14.3,29.90,WNW,292,6.0,16.0,53,0.00,,OVC047,0.00,VWS V14.01,2013-02-20 12:26:00,
2013-02-20 07:31:00,29.2,14.2,29.90,WNW,291,5.0,12.0,53,0.00,,OVC047,0.00,VWS V14.01,2013-02-20 12:31:00,
2013-02-20 07:36:00,29.2,13.8,29.91,WNW,284,14.0,20.0,52,0.00,,OVC047,0.00,VWS V14.01,2013-02-20 12:36:00,
2013-02-20 07:41:00,29.3,13.9,29.91,WNW,297,12.0,21.0,52,0.00,,OVC047,0.00,VWS V14.01,2013-02-20 12:41:00,
2013-02-20 07:46:00,29.4,14.0,29.91,West,275,4.0,21.0,52,0.00,,OVC047,0.00,VWS V14.01,2013-02-20 12:46:00,
2013-02-20 07:51:00,29.7,14.7,29.92,WNW,298,15.0,21.0,53,0.00,,OVC047,0.00,VWS V14.01,2013-02-20 12:51:00,
2013-02-20 07:56:00,29.9,14.0,29.92,West,261,5.0,21.0,51,0.00,,OVC047,0.00,VWS V14.01,2013-02-20 12:56:00,
2013-02-20 08:01:00,30.1,14.2,29.92,West,279,10.0,18.0,51,0.00,,OVC047,0.00,VWS V14.01,2013-02-20 13:01:00,
2013-02-20 08:06:00,29.9,14.0,29.92,West,281,4.0,18.0,51,0.00,,OVC047,0.00,VWS V14.01,2013-02-20 13:06:00,
2013-02-20 08:11:00,30.0,14.5,29.92,NW,305,10.0,18.0,52,0.00,,OVC047,0.00,VWS V14.01,2013-02-20 13:11:00,
2013-02-20 08:16:00,30.3,14.4,29.92,West,259,4.0,18.0,51,0.00,,OVC047,0.00,VWS V14.01,2013-02-20 13:16:00,
2013-02-20 08:21:00,30.5,14.5,29.91,NW,316,5.0,18.0,51,0.00,,OVC047,0.00,VWS V14.01,2013-02-20 13:21:00,
2013-02-20 08:26:00,30.7,15.2,29.92,West,281,3.0,18.0,52,0.00,,OVC047,0.00,VWS V14.01,2013-02-20 13:26:00,
2013-02-20 08:31:00,30.8,15.3,29.92,WNW,285,12.0,13.0,52,0.00,,OVC047,0.00,VWS V14.01,2013-02-20 13:31:00,
2013-02-20 08:36:00,31.3,16.2,29.92,West,279,6.0,14.0,53,0.00,,OVC047,0.00,VWS V14.01,2013-02-20 13:36:00,
2013-02-20 08:41:00,31.3,15.7,29.92,West,274,4.0,14.0,52,0.00,,OVC047,0.00,VWS V14.01,2013-02-20 13:41:00,
2013-02-20 08:46:00,31.5,16.4,29.92,NNW,327,6.0,16.0,53,0.00,,OVC047,0.00,VWS V14.01,2013-02-20 13:46:00,
2013-02-20 08:51:00,31.8,16.2,29.92,WSW,258,8.0,16.0,52,0.00,,OVC047,0.00,VWS V14.01,2013-02-20 13:51:00,
2013-02-20 08:56:00,31.1,16.0,29.92,North,351,6.0,17.0,53,0.00,,OVC047,0.00,VWS V14.01,2013-02-20 13:56:00,
2013-02-20 09:01:00,30.7,16.0,29.92,WNW,297,15.0,19.0,54,0.00,,OVC045,0.00,VWS V14.01,2013-02-20 14:01:00,
2013-02-20 09:07:00,30.4,16.2,29.92,NW,315,8.0,19.0,55,0.00,,OVC045,0.00,VWS V14.01,2013-02-20 14:07:00,
2013-02-20 09:12:00,30.5,16.3,29.92,WSW,243,6.0,19.0,55,0.00,,OVC045,0.00,VWS V14.01,2013-02-20 14:12:00,
2013-02-20 09:17:00,30.5,15.9,29.92,NW,313,10.0,19.0,54,0.00,,OVC045,0.00,VWS V14.01,2013-02-20 14:17:00,
2013-02-20 09:22:00,30.0,13.6,29.92,WNW,299,10.0,19.0,50,0.00,,OVC045,0.00,VWS V14.01,2013-02-20 14:22:00,
2013-02-20 09:27:00,30.3,14.4,29.92,NNW,336,5.0,19.0,51,0.00,,OVC045,0.00,VWS V14.01,2013-02-20 14:27:00,
2013-02-20 09:32:00,31.2,15.2,29.92,WNW,286,6.0,10.0,51,0.00,,OVC045,0.00,VWS V14.01,2013-02-20 14:32:00,
2013-02-20 09:37:00,31.9,14.9,29.92,WNW,294,5.0,16.0,49,0.00,,OVC045,0.00,VWS V14.01,2013-02-20 14:37:00,
2013-02-20 09:42:00,31.9,14.0,29.92,SSW,198,3.0,16.0,47,0.00,,OVC045,0.00,VWS V14.01,2013-02-20 14:42:00,
2013-02-20 09:47:00,31.9,14.0,29.92,NW,322,5.0,17.0,47,0.00,,OVC045,0.00,VWS V14.01,2013-02-20 14:47:00,
2013-02-20 09:52:00,32.3,14.3,29.92,West,273,4.0,17.0,47,0.00,,OVC045,0.00,VWS V14.01,2013-02-20 14:52:00,
2013-02-20 09:57:00,32.4,14.4,29.92,West,276,9.0,17.0,47,0.00,,OVC045,0.00,VWS V14.01,2013-02-20 14:57:00,
2013-02-20 10:02:00,32.4,14.4,29.92,NW,304,14.0,21.0,47,0.00,,OVC049,0.00,VWS V14.01,2013-02-20 15:02:00,
2013-02-20 10:07:00,32.7,14.2,29.92,NW,324,15.0,21.0,46,0.00,,OVC049,0.00,VWS V14.01,2013-02-20 15:07:00,
2013-02-20 10:12:00,32.7,14.2,29.92,NW,306,6.0,21.0,46,0.00,,OVC049,0.00,VWS V14.01,2013-02-20 15:12:00,
2013-02-20 10:17:00,32.8,14.3,29.92,WNW,297,9.0,21.0,46,0.00,,OVC049,0.00,VWS V14.01,2013-02-20 15:17:00,
2013-02-20 10:22:00,32.8,13.8,29.92,WNW,300,3.0,21.0,45,0.00,,OVC049,0.00,VWS V14.01,2013-02-20 15:22:00,
2013-02-20 10:27:00,33.5,14.4,29.92,WNW,300,10.0,21.0,45,0.00,,OVC049,0.00,VWS V14.01,2013-02-20 15:27:00,
2013-02-20 10:32:00,33.7,14.1,29.92,NNW,340,7.0,18.0,44,0.00,,OVC049,0.00,VWS V14.01,2013-02-20 15:32:00,
2013-02-20 10:37:00,32.9,13.4,29.92,NNW,329,14.0,19.0,44,0.00,,OVC049,0.00,VWS V14.01,2013-02-20 15:37:00,
2013-02-20 10:42:00,33.0,13.5,29.92,NNW,329,5.0,19.0,44,0.00,,OVC049,0.00,VWS V14.01,2013-02-20 15:42:00,
2013-02-20 10:47:00,33.2,13.1,29.92,SW,221,8.0,19.0,43,0.00,,OVC049,0.00,VWS V14.01,2013-02-20 15:47:00,
2013-02-20 10:52:00,33.4,13.9,29.92,West,269,6.0,19.0,44,0.00,,OVC049,0.00,VWS V14.01,2013-02-20 15:52:00,
2013-02-20 10:57:00,33.1,13.1,29.92,WNW,297,12.0,19.0,43,0.00,,OVC049,0.00,VWS V14.01,2013-02-20 15:57:00,
2013-02-20 11:02:00,33.6,14.5,29.92,NW,317,6.0,12.0,45,0.00,,OVC049,0.00,VWS V14.01,2013-02-20 16:02:00,
2013-02-20 11:07:00,33.7,13.1,29.92,WNW,298,7.0,19.0,42,0.00,,OVC049,0.00,VWS V14.01,2013-02-20 16:07:00,
2013-02-20 11:12:00,32.9,12.9,29.92,WNW,292,10.0,19.0,43,0.00,,OVC049,0.00,VWS V14.01,2013-02-20 16:12:00,
2013-02-20 11:17:00,33.0,12.4,29.91,West,267,8.0,19.0,42,0.00,,OVC049,0.00,VWS V14.01,2013-02-20 16:17:00,
2013-02-20 11:22:00,33.3,13.2,29.91,WNW,285,9.0,19.0,43,0.00,,OVC049,0.00,VWS V14.01,2013-02-20 16:22:00,
2013-02-20 11:27:00,34.1,14.0,29.91,WSW,248,4.0,19.0,43,0.00,,OVC049,0.00,VWS V14.01,2013-02-20 16:27:00,
2013-02-20 11:32:00,33.5,13.4,29.91,NW,307,5.0,18.0,43,0.00,,OVC049,0.00,VWS V14.01,2013-02-20 16:32:00,
2013-02-20 11:37:00,33.7,14.1,29.91,WNW,288,6.0,18.0,44,0.00,,OVC049,0.00,VWS V14.01,2013-02-20 16:37:00,
2013-02-20 11:42:00,34.0,13.3,29.91,NW,325,3.0,20.0,42,0.00,,OVC049,0.00,VWS V14.01,2013-02-20 16:42:00,
2013-02-20 11:47:00,33.0,13.0,29.91,WNW,292,11.0,20.0,43,0.00,,OVC049,0.00,VWS V14.01,2013-02-20 16:47:00,
2013-02-20 11:52:00,32.6,13.1,29.91,West,269,9.0,20.0,44,0.00,,OVC049,0.00,VWS V14.01,2013-02-20 16:52:00,
2013-02-20 11:57:00,32.5,13.0,29.91,NW,311,8.0,21.0,44,0.00,,OVC049,0.00,VWS V14.01,2013-02-20 16:57:00,
2013-02-20 12:02:00,32.9,13.9,29.91,West,260,9.0,19.0,45,0.00,,OVC049,0.00,VWS V14.01,2013-02-20 17:02:00,
2013-02-20 12:07:00,33.2,13.1,29.91,WNW,285,6.0,19.0,43,0.00,,OVC049,0.00,VWS V14.01,2013-02-20 17:07:00,
2013-02-20 12:12:00,34.2,14.1,29.90,West,275,12.0,20.0,43,0.00,,OVC049,0.00,VWS V14.01,2013-02-20 17:12:00,
2013-02-20 12:17:00,35.0,14.2,29.90,WNW,296,9.0,20.0,42,0.00,,OVC049,0.00,VWS V14.01,2013-02-20 17:17:00,
2013-02-20 12:23:00,34.3,13.1,29.90,WNW,299,6.0,20.0,41,0.00,,OVC049,0.00,VWS V14.01,2013-02-20 17:23:00,
2013-02-20 12:28:00,34.1,12.9,29.90,WSW,240,9.0,20.0,41,0.00,,OVC049,0.00,VWS V14.01,2013-02-20 17:28:00,
2013-02-20 12:33:00,33.4,12.8,29.90,NNW,338,6.0,20.0,42,0.00,,OVC049,0.00,VWS V14.01,2013-02-20 17:33:00,
2013-02-20 12:38:00,32.7,12.7,29.90,NW,304,5.0,20.0,43,0.00,,OVC049,0.00,VWS V14.01,2013-02-20 17:38:00,
2013-02-20 12:43:00,32.5,13.0,29.90,WNW,288,19.0,20.0,44,0.00,,OVC049,0.00,VWS V14.01,2013-02-20 17:43:00,
2013-02-20 12:48:00,32.3,12.8,29.90,West,271,6.0,20.0,44,0.00,,OVC049,0.00,VWS V14.01,2013-02-20 17:48:00,
2013-02-20 12:53:00,33.2,14.7,29.90,WNW,298,8.0,20.0,46,0.00,,OVC049,0.00,VWS V14.01,2013-02-20 17:53:00,
2013-02-20 12:58:00,33.6,14.0,29.90,West,266,8.0,20.0,44,0.00,,OVC049,0.00,VWS V14.01,2013-02-20 17:58:00,
2013-02-20 13:03:00,33.3,14.3,29.90,SW,221,14.0,16.0,45,0.00,,OVC055,0.00,VWS V14.01,2013-02-20 18:03:00,
2013-02-20 13:08:00,33.7,14.1,29.90,NW,304,13.0,17.0,44,0.00,,OVC055,0.00,VWS V14.01,2013-02-20 18:08:00,
2013-02-20 13:13:00,33.4,13.3,29.91,WNW,283,6.0,18.0,43,0.00,,OVC055,0.00,VWS V14.01,2013-02-20 18:13:00,
2013-02-20 13:18:00,33.0,13.0,29.90,SW,233,14.0,21.0,43,0.00,,OVC055,0.00,VWS V14.01,2013-02-20 18:18:00,
2013-02-20 13:23:00,32.6,13.1,29.91,NNW,340,7.0,22.0,44,0.00,,OVC055,0.00,VWS V14.01,2013-02-20 18:23:00,
2013-02-20 13:28:00,32.4,12.9,29.91,West,275,10.0,22.0,44,0.00,,OVC055,0.00,VWS V14.01,2013-02-20 18:28:00,
2013-02-20 13:33:00,32.4,12.9,29.91,WNW,286,8.0,14.0,44,0.00,,OVC055,0.00,VWS V14.01,2013-02-20 18:33:00,
2013-02-20 13:38:00,32.3,12.8,29.91,WNW,287,11.0,23.0,44,0.00,,OVC055,0.00,VWS V14.01,2013-02-20 18:38:00,
2013-02-20 13:43:00,33.0,14.0,29.91,West,277,7.0,23.0,45,0.00,,OVC055,0.00,VWS V14.01,2013-02-20 18:43:00,
2013-02-20 13:48:00,32.8,12.2,29.91,West,267,5.0,23.0,42,0.00,,OVC055,0.00,VWS V14.01,2013-02-20 18:48:00,
2013-02-20 13:53:00,32.0,12.6,29.91,NW,320,6.0,23.0,44,0.00,,OVC055,0.00,VWS V14.01,2013-02-20 18:53:00,
2013-02-20 13:58:00,31.6,12.2,29.92,NNW,336,16.0,23.0,44,0.00,,OVC055,0.00,VWS V14.01,2013-02-20 18:58:00,
2013-02-20 14:03:00,31.5,12.1,29.92,NNW,333,14.0,17.0,44,0.00,,OVC055,0.00,VWS V14.01,2013-02-20 19:03:00,
2013-02-20 14:08:00,31.4,12.5,29.91,NW,317,2.0,20.0,45,0.00,,OVC055,0.00,VWS V14.01,2013-02-20 19:08:00,
2013-02-20 14:13:00,31.7,13.3,29.92,NNW,333,15.0,20.0,46,0.00,,OVC055,0.00,VWS V14.01,2013-02-20 19:13:00,
2013-02-20 14:19:00,32.0,12.6,29.92,WNW,303,9.0,22.0,44,0.00,,OVC055,0.00,VWS V14.01,2013-02-20 19:19:00,
2013-02-20 14:24:00,32.4,12.9,29.92,West,271,14.0,22.0,44,0.00,,OVC055,0.00,VWS V14.01,2013-02-20 19:24:00,
2013-02-20 14:29:00,31.9,13.0,29.92,WNW,287,8.0,22.0,45,0.00,,OVC055,0.00,VWS V14.01,2013-02-20 19:29:00,
2013-02-20 14:34:00,31.5,12.6,29.92,WNW,285,12.0,16.0,45,0.00,,OVC055,0.00,VWS V14.01,2013-02-20 19:34:00,
2013-02-20 14:39:00,31.5,11.6,29.92,WNW,291,4.0,19.0,43,0.00,,OVC055,0.00,VWS V14.01,2013-02-20 19:39:00,
2013-02-20 14:44:00,32.5,12.5,29.92,WNW,294,6.0,22.0,43,0.00,,OVC055,0.00,VWS V14.01,2013-02-20 19:44:00,
2013-02-20 14:49:00,33.6,13.5,29.93,NW,310,8.0,22.0,43,0.00,,OVC055,0.00,VWS V14.01,2013-02-20 19:49:00,
2013-02-20 14:54:00,33.6,13.0,29.93,WNW,297,9.0,22.0,42,0.00,,OVC055,0.00,VWS V14.01,2013-02-20 19:54:00,
2013-02-20 14:59:00,32.8,12.8,29.93,West,271,3.0,22.0,43,0.00,,OVC055,0.00,VWS V14.01,2013-02-20 19:59:00,
2013-02-20 15:04:00,33.8,13.7,29.93,West,260,6.0,14.0,43,0.00,,OVC055,0.00,VWS V14.01,2013-02-20 20:04:00,
2013-02-20 15:09:00,34.3,13.1,29.93,WNW,288,9.0,18.0,41,0.00,,OVC055,0.00,VWS V14.01,2013-02-20 20:09:00,
2013-02-20 15:14:00,33.8,12.6,29.93,WSW,238,7.0,21.0,41,0.00,,OVC055,0.00,VWS V14.01,2013-02-20 20:14:00,
2013-02-20 15:19:00,32.8,12.8,29.93,WNW,286,13.0,21.0,43,0.00,,OVC055,0.00,VWS V14.01,2013-02-20 20:19:00,
2013-02-20 15:24:00,31.9,12.5,29.93,West,277,11.0,21.0,44,0.00,,OVC055,0.00,VWS V14.01,2013-02-20 20:24:00,
2013-02-20 15:29:00,32.0,12.1,29.93,NW,308,3.0,23.0,43,0.00,,OVC055,0.00,VWS V14.01,2013-02-20 20:29:00,
2013-02-20 15:34:00,32.7,12.2,29.94,SW,227,6.0,23.0,42,0.00,,OVC055,0.00,VWS V14.01,2013-02-20 20:34:00,
2013-02-20 15:39:00,32.5,11.4,29.93,NW,310,6.0,24.0,41,0.00,,OVC055,0.00,VWS V14.01,2013-02-20 20:39:00,
2013-02-20 15:44:00,32.8,11.7,29.94,WSW,246,5.0,24.0,41,0.00,,OVC055,0.00,VWS V14.01,2013-02-20 20:44:00,
2013-02-20 15:49:00,32.5,12.0,29.94,WSW,245,4.0,24.0,42,0.00,,OVC055,0.00,VWS V14.01,2013-02-20 20:49:00,
2013-02-20 15:54:00,31.9,12.5,29.94,WNW,298,6.0,24.0,44,0.00,,OVC055,0.00,VWS V14.01,2013-02-20 20:54:00,
2013-02-20 15:59:00,31.9,12.5,29.94,NNW,346,6.0,24.0,44,0.00,,OVC055,0.00,VWS V14.01,2013-02-20 20:59:00,
2013-02-20 16:04:00,32.2,13.3,29.95,WNW,302,9.0,16.0,45,0.00,,OVC055,0.00,VWS V14.01,2013-02-20 21:04:00,
2013-02-20 16:09:00,32.3,13.4,29.95,West,271,11.0,16.0,45,0.00,,OVC055,0.00,VWS V14.01,2013-02-20 21:09:00,
2013-02-20 16:14:00,32.0,13.6,29.95,WNW,287,4.0,18.0,46,0.00,,OVC055,0.00,VWS V14.01,2013-02-20 21:14:00,
2013-02-20 16:19:00,31.7,13.8,29.94,West,278,5.0,18.0,47,0.00,,OVC055,0.00,VWS V14.01,2013-02-20 21:19:00,
2013-02-20 16:24:00,31.2,13.3,29.94,WNW,295,6.0,20.0,47,0.00,,OVC055,0.00,VWS V14.01,2013-02-20 21:24:00,
2013-02-20 16:30:00,30.9,13.1,29.94,West,259,5.0,8.0,47,0.00,,OVC060,0.00,VWS V14.01,2013-02-20 21:30:00,
2013-02-20 16:35:00,30.7,12.9,29.95,NW,304,6.0,18.0,47,0.00,,OVC060,0.00,VWS V14.01,2013-02-20 21:35:00,
2013-02-20 16:40:00,30.8,13.0,29.95,WSW,258,12.0,21.0,47,0.00,,OVC060,0.00,VWS V14.01,2013-02-20 21:40:00,
2013-02-20 16:45:00,31.0,13.1,29.95,NW,310,11.0,21.0,47,0.00,,OVC060,0.00,VWS V14.01,2013-02-20 21:45:00,
2013-02-20 16:50:00,30.8,13.0,29.95,West,273,7.0,22.0,47,0.00,,OVC060,0.00,VWS V14.01,2013-02-20 21:50:00,
2013-02-20 16:55:00,30.4,13.1,29.95,NW,317,9.0,22.0,48,0.00,,OVC060,0.00,VWS V14.01,2013-02-20 21:55:00,
2013-02-20 17:00:00,30.1,12.8,29.96,WNW,288,7.0,7.0,48,0.00,,OVC060,0.00,VWS V14.01,2013-02-20 22:00:00,
2013-02-20 17:05:00,30.1,12.8,29.96,NW,309,5.0,12.0,48,0.00,,OVC060,0.00,VWS V14.01,2013-02-20 22:05:00,
2013-02-20 17:10:00,30.1,13.3,29.96,SW,234,5.0,16.0,49,0.00,,OVC060,0.00,VWS V14.01,2013-02-20 22:10:00,
2013-02-20 17:15:00,30.2,13.4,29.96,NW,304,16.0,16.0,49,0.00,,OVC060,0.00,VWS V14.01,2013-02-20 22:15:00,
2013-02-20 17:20:00,30.1,13.3,29.96,WNW,294,8.0,17.0,49,0.00,,OVC060,0.00,VWS V14.01,2013-02-20 22:20:00,
2013-02-20 17:25:00,29.9,13.5,29.96,NW,306,2.0,17.0,50,0.00,,OVC060,0.00,VWS V14.01,2013-02-20 22:25:00,
2013-02-20 17:30:00,29.8,13.9,29.97,NW,310,7.0,8.0,51,0.00,,OVC055,0.00,VWS V14.01,2013-02-20 22:30:00,
2013-02-20 17:35:00,29.6,13.7,29.97,NW,318,3.0,13.0,51,0.00,,OVC055,0.00,VWS V14.01,2013-02-20 22:35:00,
2013-02-20 17:40:00,29.3,13.9,29.97,NNW,334,3.0,16.0,52,0.00,,OVC055,0.00,VWS V14.01,2013-02-20 22:40:00,
2013-02-20 17:45:00,29.2,13.3,29.97,West,279,9.0,16.0,51,0.00,,OVC055,0.00,VWS V14.01,2013-02-20 22:45:00,
2013-02-20 17:50:00,29.1,13.2,29.98,West,279,14.0,21.0,51,0.00,,OVC055,0.00,VWS V14.01,2013-02-20 22:50:00,
2013-02-20 17:55:00,29.2,13.3,29.98,West,277,10.0,21.0,51,0.00,,OVC055,0.00,VWS V14.01,2013-02-20 22:55:00,
2013-02-20 18:00:00,29.2,13.3,29.98,West,276,9.0,9.0,51,0.00,,OVC055,0.00,VWS V14.01,2013-02-20 23:00:00,
2013-02-20 18:05:00,29.2,13.3,29.98,WNW,292,13.0,13.0,51,0.00,,OVC055,0.00,VWS V14.01,2013-02-20 23:05:00,
2013-02-20 18:10:00,29.0,13.1,29.99,West,263,5.0,16.0,51,0.00,,OVC055,0.00,VWS V14.01,2013-02-20 23:10:00,
2013-02-20 18:15:00,29.1,13.2,29.99,WNW,290,8.0,19.0,51,0.00,,OVC055,0.00,VWS V14.01,2013-02-20 23:15:00,
2013-02-20 18:20:00,29.1,13.2,29.99,WNW,294,4.0,19.0,51,0.00,,OVC055,0.00,VWS V14.01,2013-02-20 23:20:00,
2013-02-20 18:25:00,29.1,13.7,29.99,West,273,6.0,19.0,52,0.00,,OVC055,0.00,VWS V14.01,2013-02-20 23:25:00,
2013-02-20 18:30:00,28.9,13.9,30.00,West,280,8.0,9.0,53,0.00,,OVC055,0.00,VWS V14.01,2013-02-20 23:30:00,
2013-02-20 18:35:00,29.0,13.6,30.00,West,263,5.0,14.0,52,0.00,,OVC055,0.00,VWS V14.01,2013-02-20 23:35:00,
2013-02-20 18:40:00,28.9,13.5,30.00,NW,308,7.0,15.0,52,0.00,,OVC055,0.00,VWS V14.01,2013-02-20 23:40:00,
2013-02-20 18:45:00,28.8,13.8,30.00,WNW,300,2.0,15.0,53,0.00,,OVC055,0.00,VWS V14.01,2013-02-20 23:45:00,
2013-02-20 18:50:00,28.9,13.5,30.00,SSW,203,7.0,15.0,52,0.00,,OVC055,0.00,VWS V14.01,2013-02-20 23:50:00,
2013-02-20 18:55:00,29.0,14.0,30.00,WSW,254,4.0,15.0,53,0.00,,OVC055,0.00,VWS V14.01,2013-02-20 23:55:00,
2013-02-20 19:00:00,29.0,14.0,30.00,NNW,328,5.0,7.0,53,0.00,,OVC060,0.00,VWS V14.01,2013-02-21 00:00:00,
2013-02-20 19:06:00,29.0,14.0,30.01,NW,306,5.0,12.0,53,0.00,,OVC060,0.00,VWS V14.01,2013-02-21 00:06:00,
2013-02-20 19:11:00,29.2,14.2,30.01,West,268,3.0,12.0,53,0.00,,OVC060,0.00,VWS V14.01,2013-02-21 00:11:00,
2013-02-20 19:16:00,29.1,14.5,30.01,NW,325,4.0,12.0,54,0.00,,OVC060,0.00,VWS V14.01,2013-02-21 00:16:00,
2013-02-20 19:21:00,28.9,13.9,30.00,West,264,8.0,19.0,53,0.00,,OVC060,0.00,VWS V14.01,2013-02-21 00:21:00,
2013-02-20 19:26:00,28.8,14.3,30.00,WNW,284,6.0,19.0,54,0.00,,OVC060,0.00,VWS V14.01,2013-02-21 00:26:00,
2013-02-20 19:31:00,28.7,13.8,30.00,West,273,8.0,10.0,53,0.00,,OVC060,0.00,VWS V14.01,2013-02-21 00:31:00,
2013-02-20 19:36:00,28.8,14.3,30.00,WNW,296,15.0,15.0,54,0.00,,OVC060,0.00,VWS V14.01,2013-02-21 00:36:00,
2013-02-20 19:41:00,28.6,13.6,30.01,WSW,245,7.0,18.0,53,0.00,,OVC060,0.00,VWS V14.01,2013-02-21 00:41:00,
2013-02-20 19:46:00,28.7,13.8,30.00,West,281,8.0,18.0,53,0.00,,OVC060,0.00,VWS V14.01,2013-02-21 00:46:00,
2013-02-20 19:51:00,28.7,13.3,30.01,NNW,336,11.0,18.0,52,0.00,,OVC060,0.00,VWS V14.01,2013-02-21 00:51:00,
2013-02-20 19:56:00,28.7,13.3,30.01,WNW,302,5.0,18.0,52,0.00,,OVC060,0.00,VWS V14.01,2013-02-21 00:56:00,
2013-02-20 20:01:00,28.8,13.8,30.01,NNW,338,7.0,12.0,53,0.00,,OVC050,0.00,VWS V14.01,2013-02-21 01:01:00,
2013-02-20 20:06:00,28.5,12.2,30.01,WSW,257,7.0,17.0,50,0.00,,OVC050,0.00,VWS V14.01,2013-02-21 01:06:00,
2013-02-20 20:11:00,28.6,13.6,30.01,NW,317,6.0,17.0,53,0.00,,OVC050,0.00,VWS V14.01,2013-02-21 01:11:00,
2013-02-20 20:16:00,28.4,12.6,30.02,NW,312,8.0,17.0,51,0.00,,OVC050,0.00,VWS V14.01,2013-02-21 01:16:00,
2013-02-20 20:21:00,28.2,12.0,30.02,NW,312,6.0,17.0,50,0.00,,OVC050,0.00,VWS V14.01,2013-02-21 01:21:00,
2013-02-20 20:26:00,28.0,12.2,30.01,WNW,296,12.0,17.0,51,0.00,,OVC050,0.00,VWS V14.01,2013-02-21 01:26:00,
2013-02-20 20:31:00,27.9,12.1,30.02,WNW,300,9.0,12.0,51,0.00,,OVC050,0.00,VWS V14.01,2013-02-21 01:31:00,
2013-02-20 20:36:00,27.8,12.0,30.01,West,273,7.0,16.0,51,0.00,,OVC050,0.00,VWS V14.01,2013-02-21 01:36:00,
2013-02-20 20:41:00,27.8,12.0,30.01,West,265,10.0,18.0,51,0.00,,OVC050,0.00,VWS V14.01,2013-02-21 01:41:00,
2013-02-20 20:46:00,27.8,12.9,30.01,NNW,345,5.0,18.0,53,0.00,,OVC050,0.00,VWS V14.01,2013-02-21 01:46:00,
2013-02-20 20:51:00,27.9,12.6,30.02,NW,304,9.0,18.0,52,0.00,,OVC050,0.00,VWS V14.01,2013-02-21 01:51:00,
2013-02-20 20:56:00,27.8,12.5,30.01,WSW,248,7.0,18.0,52,0.00,,OVC050,0.00,VWS V14.01,2013-02-21 01:56:00,
2013-02-20 21:01:00,27.8,12.5,30.01,WNW,294,6.0,15.0,52,0.00,,CLR,0.00,VWS V14.01,2013-02-21 02:01:00,
2013-02-20 21:06:00,27.5,12.6,30.01,WSW,254,5.0,15.0,53,0.00,,CLR,0.00,VWS V14.01,2013-02-21 02:06:00,
2013-02-20 21:11:00,27.4,12.5,30.00,WNW,292,6.0,16.0,53,0.00,,CLR,0.00,VWS V14.01,2013-02-21 02:11:00,
2013-02-20 21:16:00,27.2,12.4,30.01,WNW,286,7.0,16.0,53,0.00,,CLR,0.00,VWS V14.01,2013-02-21 02:16:00,
2013-02-20 21:21:00,27.3,12.9,30.01,NW,307,7.0,16.0,54,0.00,,CLR,0.00,VWS V14.01,2013-02-21 02:21:00,
2013-02-20 21:26:00,27.2,12.4,30.01,WNW,302,4.0,16.0,53,0.00,,CLR,0.00,VWS V14.01,2013-02-21 02:26:00,
2013-02-20 21:31:00,27.2,12.8,30.01,WNW,297,9.0,9.0,54,0.00,,CLR,0.00,VWS V14.01,2013-02-21 02:31:00,
2013-02-20 21:36:00,27.0,12.6,30.02,NW,318,2.0,11.0,54,0.00,,CLR,0.00,VWS V14.01,2013-02-21 02:36:00,
2013-02-20 21:41:00,26.9,12.5,30.02,NW,323,2.0,11.0,54,0.00,,CLR,0.00,VWS V14.01,2013-02-21 02:41:00,
2013-02-20 21:46:00,26.8,12.4,30.02,West,260,3.0,11.0,54,0.00,,CLR,0.00,VWS V14.01,2013-02-21 02:46:00,
2013-02-20 21:51:00,26.7,12.3,30.02,WSW,254,6.0,11.0,54,0.00,,CLR,0.00,VWS V14.01,2013-02-21 02:51:00,
2013-02-20 21:56:00,26.7,12.7,30.02,North,355,5.0,11.0,55,0.00,,CLR,0.00,VWS V14.01,2013-02-21 02:56:00,
2013-02-20 22:01:00,26.6,12.2,30.01,WNW,287,7.0,13.0,54,0.00,,CLR,0.00,VWS V14.01,2013-02-21 03:01:00,
2013-02-20 22:06:00,26.5,12.1,30.01,WSW,256,7.0,17.0,54,0.00,,CLR,0.00,VWS V14.01,2013-02-21 03:06:00,
2013-02-20 22:11:00,26.4,12.0,30.01,West,275,7.0,17.0,54,0.00,,CLR,0.00,VWS V14.01,2013-02-21 03:11:00,
2013-02-20 22:16:00,26.3,11.9,30.01,WNW,288,14.0,17.0,54,0.00,,CLR,0.00,VWS V14.01,2013-02-21 03:16:00,
2013-02-20 22:21:00,26.2,11.8,30.02,NW,309,2.0,17.0,54,0.00,,CLR,0.00,VWS V14.01,2013-02-21 03:21:00,
2013-02-20 22:26:00,26.2,11.8,30.03,NW,309,9.0,17.0,54,0.00,,CLR,0.00,VWS V14.01,2013-02-21 03:26:00,
2013-02-20 22:31:00,26.1,11.7,30.02,West,281,7.0,7.0,54,0.00,,CLR,0.00,VWS V14.01,2013-02-21 03:31:00,
2013-02-20 22:36:00,25.9,12.0,30.03,WNW,295,4.0,10.0,55,0.00,,CLR,0.00,VWS V14.01,2013-02-21 03:36:00,
2013-02-20 22:41:00,25.8,11.9,30.03,West,279,7.0,13.0,55,0.00,,CLR,0.00,VWS V14.01,2013-02-21 03:41:00,
2013-02-20 22:46:00,25.8,11.9,30.03,WSW,246,4.0,13.0,55,0.00,,CLR,0.00,VWS V14.01,2013-02-21 03:46:00,
2013-02-20 22:51:00,25.7,11.8,30.03,WNW,286,4.0,13.0,55,0.00,,CLR,0.00,VWS V14.01,2013-02-21 03:51:00,
2013-02-20 22:56:00,25.7,11.8,30.03,WNW,290,7.0,13.0,55,0.00,,CLR,0.00,VWS V14.01,2013-02-21 03:56:00,
2013-02-20 23:01:00,25.6,11.7,30.03,NW,315,9.0,10.0,55,0.00,,CLR,0.00,VWS V14.01,2013-02-21 04:01:00,
2013-02-20 23:07:00,25.6,12.1,30.03,WNW,286,5.0,12.0,56,0.00,,CLR,0.00,VWS V14.01,2013-02-21 04:07:00,
2013-02-20 23:12:00,25.5,11.6,30.04,WNW,298,4.0,12.0,55,0.00,,CLR,0.00,VWS V14.01,2013-02-21 04:12:00,
2013-02-20 23:17:00,25.5,11.6,30.03,WNW,297,6.0,13.0,55,0.00,,CLR,0.00,VWS V14.01,2013-02-21 04:17:00,
2013-02-20 23:22:00,25.4,11.9,30.04,WSW,247,4.0,13.0,56,0.00,,CLR,0.00,VWS V14.01,2013-02-21 04:22:00,
2013-02-20 23:27:00,25.4,11.9,30.04,NW,321,8.0,13.0,56,0.00,,CLR,0.00,VWS V14.01,2013-02-21 04:27:00,
2013-02-20 23:32:00,25.3,11.8,30.04,SW,225,6.0,11.0,56,0.00,,CLR,0.00,VWS V14.01,2013-02-21 04:32:00,
2013-02-20 23:37:00,25.2,11.7,30.04,NW,305,5.0,14.0,56,0.00,,CLR,0.00,VWS V14.01,2013-02-21 04:37:00,
2013-02-20 23:42:00,25.2,11.7,30.04,West,269,2.0,14.0,56,0.00,,CLR,0.00,VWS V14.01,2013-02-21 04:42:00,
2013-02-20 23:47:00,25.2,11.7,30.04,NW,309,6.0,14.0,56,0.00,,CLR,0.00,VWS V14.01,2013-02-21 04:47:00,
2013-02-20 23:52:00,25.1,11.6,30.03,West,265,6.0,14.0,56,0.00,,CLR,0.00,VWS V14.01,2013-02-21 04:52:00,
2013-02-20 23:57:00,25.0,11.5,30.04,NW,314,8.0,14.0,56,0.00,,CLR,0.00,VWS V14.01,2013-02-21 04:57:00,